Last 30 Days

Alpine-Roundhouse Top 7880'

Daily Data | America/Los_Angeles
as of 1/17/21 4:02 PM PST
Date Daily Max Temp (°F) Daily Min Temp (°F) Wind Spd (mph) Daily Max Wind (mph) Max RH (%) Min RH (%) Wet Bulb (°F) Bat Volt Min Day (V)
1/16/21 50.2 34.1 2.1 15.9 76 42 34.9 12.9
1/15/21 56.1 39.5 2.8 15.4 60 13 35.7 13.1
1/14/21 50.0 36.6 2.5 13.0 66 16 32.7 13.0
1/13/21 43.3 34.3 3.2 23.6 99 38 35.9 13.0
1/12/21 40.4 31.6 5.7 31.3 96 29 28.1 12.9
1/11/21 52.3 32.5 3.6 18.4 63 16 29.6 13.1
1/10/21 39.8 29.8 4.1 21.7 86 35 29.8 13.0
1/9/21 41.1 20.5 1.0 10.0 93 22 25.1 13.1
1/8/21 35.6 21.2 4.1 25.3 95 32 25.9 12.8
1/7/21 45.3 26.7 1.9 11.0 55 15 25.2 12.7
1/6/21 36.1 28.1 4.4 25.7 98 34 27.5 12.4
1/5/21 34.3 20.6 4.3 18.0 99 93 27.6 12.8
1/4/21 32.5 21.2 9.7 41.1 100 73 27.9 12.6
1/3/21 35.0 25.7 3.6 18.6 100 75 29.2 12.5
1/2/21 32.6 24.7 4.8 22.5 100 71 28.4 12.5
1/1/21 47.3 22.5 5.1 21.6 98 30 26.5 12.6
12/31/20 28.4 21.0 4.8 22.6 97 94 23.6 12.4
12/30/20 32.2 21.3 4.1 26.7 96 36 25.0 12.7
12/29/20 32.9 16.3 2.5 14.6 98 93 23.2 12.8
12/28/20 25.6 18.2 3.4 13.3 98 95 21.0 12.9
12/27/20 31.1 21.1 4.4 19.9 99 96 23.6 12.1
12/26/20 27.9 21.2 6.2 35.2 98 96 24.1 12.5
12/25/20 35.2 27.0 12.6 41.9 97 20 26.9 12.5
12/24/20 43.7 30.9 6.3 34.9 41 14 25.8 13.1
12/23/20 36.8 18.1 5.4 25.4 78 19 22.3 12.6
12/22/20 41.6 22.0 3.9 31.8 94 24 24.9 12.9
12/21/20 50.4 31.7 4.8 26.0 38 12 29.3 12.9
12/20/20 53.6 38.7 1.7 9.7 24 14 30.9 13.0
12/19/20 47.3 32.0 3.5 17.8 80 15 29.4 13.1
12/18/20 34.2 16.7 3.0 18.3 98 79 26.5 13.5
Max 56.1 39.5 12.6 41.9 100 96 35.9 13.5
Avg - - 4.3 - - - 27.5 -
Min 25.6 16.3 1.0 9.7 24 12 21.0 12.1